Rusk, Wisconsin
Current Conditions -  °F | °C
As of 6:35 PM on Saturday 20 Dec 2014 (Local Time) from KLUM Reporting Station
Haze Haze  
Wind Chill: 26°   Ceiling: 1100
Heat Index: 32°   Visibility: 4mi
Dew Point: 28°   Wind: 6mph
Humidity: 86%   Direction: 130°SE
Pressure: 30.15"   Gusts: NA
Location:  44.857°N, 92.0071°W
Report Text: KLUM 210035Z AUTO 13005KT 4SM BR OVC011 00/M02 A3015 RMK AO2 T10011022
Loading
Personal Weather Stations






























Interactive Weather Map New forecast layout! Learn more

10-Day Weather Forecast

Advertisements
Track Severe Weather on mobile